sensor_id;sensor_type;location;lat;lon;timestamp;P1;durP1;ratioP1;P2;durP2;ratioP2
55417;SDS011;41287;47.554;7.844;2023-03-23T00:00:51;11.48;;;4.63;;
55417;SDS011;41287;47.554;7.844;2023-03-23T00:03:16;13.15;;;5.32;;
55417;SDS011;41287;47.554;7.844;2023-03-23T00:05:43;10.95;;;4.80;;
55417;SDS011;41287;47.554;7.844;2023-03-23T00:08:15;10.57;;;4.60;;
55417;SDS011;41287;47.554;7.844;2023-03-23T00:10:49;11.23;;;5.05;;
55417;SDS011;41287;47.554;7.844;2023-03-23T00:13:17;11.10;;;4.93;;
55417;SDS011;41287;47.554;7.844;2023-03-23T00:15:44;11.35;;;4.88;;
55417;SDS011;41287;47.554;7.844;2023-03-23T00:18:10;9.82;;;4.68;;
55417;SDS011;41287;47.554;7.844;2023-03-23T00:20:45;10.10;;;4.78;;
55417;SDS011;41287;47.554;7.844;2023-03-23T00:23:20;11.98;;;4.60;;
55417;SDS011;41287;47.554;7.844;2023-03-23T00:25:48;10.85;;;4.60;;
55417;SDS011;41287;47.554;7.844;2023-03-23T00:28:16;13.98;;;5.13;;
55417;SDS011;41287;47.554;7.844;2023-03-23T00:30:41;12.85;;;5.30;;
55417;SDS011;41287;47.554;7.844;2023-03-23T00:33:07;10.13;;;4.78;;
55417;SDS011;41287;47.554;7.844;2023-03-23T00:35:38;11.75;;;4.78;;
55417;SDS011;41287;47.554;7.844;2023-03-23T00:38:04;11.15;;;5.00;;
55417;SDS011;41287;47.554;7.844;2023-03-23T00:40:33;11.15;;;4.80;;
55417;SDS011;41287;47.554;7.844;2023-03-23T00:43:00;11.52;;;4.50;;
55417;SDS011;41287;47.554;7.844;2023-03-23T00:45:28;12.68;;;5.25;;
55417;SDS011;41287;47.554;7.844;2023-03-23T00:47:53;11.13;;;4.90;;
55417;SDS011;41287;47.554;7.844;2023-03-23T00:50:19;9.25;;;5.00;;
55417;SDS011;41287;47.554;7.844;2023-03-23T00:52:44;11.50;;;4.95;;
55417;SDS011;41287;47.554;7.844;2023-03-23T00:55:09;12.05;;;4.90;;
55417;SDS011;41287;47.554;7.844;2023-03-23T00:57:35;10.43;;;4.63;;
55417;SDS011;41287;47.554;7.844;2023-03-23T01:00:00;12.40;;;5.15;;
55417;SDS011;41287;47.554;7.844;2023-03-23T01:02:26;11.85;;;5.40;;
55417;SDS011;41287;47.554;7.844;2023-03-23T01:04:52;13.52;;;5.63;;
55417;SDS011;41287;47.554;7.844;2023-03-23T01:07:19;11.27;;;5.20;;
55417;SDS011;41287;47.554;7.844;2023-03-23T01:09:45;11.52;;;5.30;;
55417;SDS011;41287;47.554;7.844;2023-03-23T01:12:11;11.05;;;4.93;;
55417;SDS011;41287;47.554;7.844;2023-03-23T01:14:36;13.00;;;5.63;;
55417;SDS011;41287;47.554;7.844;2023-03-23T01:17:02;10.93;;;5.00;;
55417;SDS011;41287;47.554;7.844;2023-03-23T01:19:28;11.77;;;5.22;;
55417;SDS011;41287;47.554;7.844;2023-03-23T01:21:53;11.63;;;5.60;;
55417;SDS011;41287;47.554;7.844;2023-03-23T01:24:20;11.13;;;5.68;;
55417;SDS011;41287;47.554;7.844;2023-03-23T01:26:46;10.38;;;5.10;;
55417;SDS011;41287;47.554;7.844;2023-03-23T01:29:11;12.88;;;5.30;;
55417;SDS011;41287;47.554;7.844;2023-03-23T01:31:36;12.15;;;5.57;;
55417;SDS011;41287;47.554;7.844;2023-03-23T01:34:02;9.57;;;5.07;;
55417;SDS011;41287;47.554;7.844;2023-03-23T01:36:29;11.18;;;4.95;;
55417;SDS011;41287;47.554;7.844;2023-03-23T01:38:57;11.48;;;4.75;;
55417;SDS011;41287;47.554;7.844;2023-03-23T01:41:25;13.15;;;5.43;;
55417;SDS011;41287;47.554;7.844;2023-03-23T01:46:32;12.77;;;5.43;;
55417;SDS011;41287;47.554;7.844;2023-03-23T01:49:07;10.82;;;5.20;;
55417;SDS011;41287;47.554;7.844;2023-03-23T01:51:37;10.57;;;4.68;;
55417;SDS011;41287;47.554;7.844;2023-03-23T01:54:11;11.85;;;5.03;;
55417;SDS011;41287;47.554;7.844;2023-03-23T01:56:40;11.63;;;5.03;;
55417;SDS011;41287;47.554;7.844;2023-03-23T01:59:10;10.93;;;5.10;;
55417;SDS011;41287;47.554;7.844;2023-03-23T02:01:36;15.15;;;5.82;;
55417;SDS011;41287;47.554;7.844;2023-03-23T02:04:04;12.75;;;5.57;;
55417;SDS011;41287;47.554;7.844;2023-03-23T02:06:30;12.18;;;5.43;;
55417;SDS011;41287;47.554;7.844;2023-03-23T02:08:56;10.50;;;5.47;;
55417;SDS011;41287;47.554;7.844;2023-03-23T02:11:22;10.73;;;4.72;;
55417;SDS011;41287;47.554;7.844;2023-03-23T02:13:48;10.63;;;5.10;;
55417;SDS011;41287;47.554;7.844;2023-03-23T02:18:56;11.73;;;5.60;;
55417;SDS011;41287;47.554;7.844;2023-03-23T02:21:36;11.25;;;5.20;;
55417;SDS011;41287;47.554;7.844;2023-03-23T02:24:10;10.60;;;5.20;;
55417;SDS011;41287;47.554;7.844;2023-03-23T02:26:47;11.13;;;5.60;;
55417;SDS011;41287;47.554;7.844;2023-03-23T02:29:23;11.43;;;5.18;;
55417;SDS011;41287;47.554;7.844;2023-03-23T02:34:45;11.40;;;5.28;;
55417;SDS011;41287;47.554;7.844;2023-03-23T02:39:53;11.15;;;5.35;;
55417;SDS011;41287;47.554;7.844;2023-03-23T02:42:25;10.38;;;5.28;;
55417;SDS011;41287;47.554;7.844;2023-03-23T02:44:56;11.60;;;5.10;;
55417;SDS011;41287;47.554;7.844;2023-03-23T02:47:28;9.35;;;5.07;;
55417;SDS011;41287;47.554;7.844;2023-03-23T02:49:55;9.27;;;4.80;;
55417;SDS011;41287;47.554;7.844;2023-03-23T02:52:25;10.13;;;4.78;;
55417;SDS011;41287;47.554;7.844;2023-03-23T02:54:55;11.75;;;5.05;;
55417;SDS011;41287;47.554;7.844;2023-03-23T02:57:23;10.02;;;4.78;;
55417;SDS011;41287;47.554;7.844;2023-03-23T02:59:51;9.75;;;4.90;;
55417;SDS011;41287;47.554;7.844;2023-03-23T03:02:21;10.95;;;4.93;;
55417;SDS011;41287;47.554;7.844;2023-03-23T03:05:09;12.15;;;5.07;;
55417;SDS011;41287;47.554;7.844;2023-03-23T03:10:27;12.35;;;5.30;;
55417;SDS011;41287;47.554;7.844;2023-03-23T03:13:04;11.82;;;5.55;;
55417;SDS011;41287;47.554;7.844;2023-03-23T03:15:49;9.82;;;4.93;;
55417;SDS011;41287;47.554;7.844;2023-03-23T03:21:10;10.55;;;5.32;;
55417;SDS011;41287;47.554;7.844;2023-03-23T03:23:39;11.32;;;5.40;;
55417;SDS011;41287;47.554;7.844;2023-03-23T03:26:07;10.07;;;4.75;;
55417;SDS011;41287;47.554;7.844;2023-03-23T03:28:37;12.02;;;5.07;;
55417;SDS011;41287;47.554;7.844;2023-03-23T03:31:03;9.65;;;5.15;;
55417;SDS011;41287;47.554;7.844;2023-03-23T03:33:32;11.55;;;5.43;;
55417;SDS011;41287;47.554;7.844;2023-03-23T03:36:02;13.55;;;5.43;;
55417;SDS011;41287;47.554;7.844;2023-03-23T03:38:40;11.20;;;5.05;;
55417;SDS011;41287;47.554;7.844;2023-03-23T03:41:06;11.15;;;5.22;;
55417;SDS011;41287;47.554;7.844;2023-03-23T03:43:31;9.52;;;5.10;;
55417;SDS011;41287;47.554;7.844;2023-03-23T03:45:57;10.98;;;4.97;;
55417;SDS011;41287;47.554;7.844;2023-03-23T03:48:22;12.18;;;5.80;;
55417;SDS011;41287;47.554;7.844;2023-03-23T03:50:47;11.32;;;4.85;;
55417;SDS011;41287;47.554;7.844;2023-03-23T03:53:13;12.20;;;5.32;;
55417;SDS011;41287;47.554;7.844;2023-03-23T03:55:39;10.85;;;5.13;;
55417;SDS011;41287;47.554;7.844;2023-03-23T03:58:10;11.82;;;5.20;;
55417;SDS011;41287;47.554;7.844;2023-03-23T04:00:35;10.52;;;4.88;;
55417;SDS011;41287;47.554;7.844;2023-03-23T04:03:01;9.38;;;4.40;;
55417;SDS011;41287;47.554;7.844;2023-03-23T04:05:28;11.05;;;5.20;;
55417;SDS011;41287;47.554;7.844;2023-03-23T04:07:54;11.40;;;5.57;;
55417;SDS011;41287;47.554;7.844;2023-03-23T04:10:26;11.23;;;5.15;;
55417;SDS011;41287;47.554;7.844;2023-03-23T04:12:51;10.55;;;4.80;;
55417;SDS011;41287;47.554;7.844;2023-03-23T04:15:17;10.30;;;4.55;;
55417;SDS011;41287;47.554;7.844;2023-03-23T04:17:46;10.23;;;4.30;;
55417;SDS011;41287;47.554;7.844;2023-03-23T04:20:12;8.90;;;4.70;;
55417;SDS011;41287;47.554;7.844;2023-03-23T04:22:42;13.82;;;5.53;;
55417;SDS011;41287;47.554;7.844;2023-03-23T04:25:08;11.32;;;4.70;;
55417;SDS011;41287;47.554;7.844;2023-03-23T04:27:36;9.40;;;5.07;;
55417;SDS011;41287;47.554;7.844;2023-03-23T04:30:04;10.63;;;4.97;;
55417;SDS011;41287;47.554;7.844;2023-03-23T04:32:31;11.02;;;5.00;;
55417;SDS011;41287;47.554;7.844;2023-03-23T04:34:57;13.23;;;5.65;;
55417;SDS011;41287;47.554;7.844;2023-03-23T04:37:26;9.98;;;4.85;;
55417;SDS011;41287;47.554;7.844;2023-03-23T04:39:58;11.45;;;5.43;;
55417;SDS011;41287;47.554;7.844;2023-03-23T04:42:31;13.10;;;5.55;;
55417;SDS011;41287;47.554;7.844;2023-03-23T04:44:57;11.07;;;5.20;;
55417;SDS011;41287;47.554;7.844;2023-03-23T04:47:24;12.18;;;5.70;;
55417;SDS011;41287;47.554;7.844;2023-03-23T04:49:56;11.00;;;5.13;;
55417;SDS011;41287;47.554;7.844;2023-03-23T04:52:26;10.52;;;5.25;;
55417;SDS011;41287;47.554;7.844;2023-03-23T04:54:53;12.50;;;5.72;;
55417;SDS011;41287;47.554;7.844;2023-03-23T04:57:20;10.07;;;5.03;;
55417;SDS011;41287;47.554;7.844;2023-03-23T04:59:46;8.23;;;4.55;;
55417;SDS011;41287;47.554;7.844;2023-03-23T05:02:12;10.48;;;5.13;;
55417;SDS011;41287;47.554;7.844;2023-03-23T05:04:38;9.48;;;4.90;;
55417;SDS011;41287;47.554;7.844;2023-03-23T05:07:05;12.38;;;5.07;;
55417;SDS011;41287;47.554;7.844;2023-03-23T05:09:31;12.30;;;5.00;;
55417;SDS011;41287;47.554;7.844;2023-03-23T05:11:57;10.32;;;4.85;;
55417;SDS011;41287;47.554;7.844;2023-03-23T05:14:24;10.57;;;5.07;;
55417;SDS011;41287;47.554;7.844;2023-03-23T05:16:50;9.80;;;4.53;;
55417;SDS011;41287;47.554;7.844;2023-03-23T05:19:17;11.52;;;4.85;;
55417;SDS011;41287;47.554;7.844;2023-03-23T05:21:42;10.77;;;4.53;;
55417;SDS011;41287;47.554;7.844;2023-03-23T05:24:09;8.55;;;4.03;;
55417;SDS011;41287;47.554;7.844;2023-03-23T05:26:35;9.48;;;4.35;;
55417;SDS011;41287;47.554;7.844;2023-03-23T05:29:00;6.35;;;3.65;;
55417;SDS011;41287;47.554;7.844;2023-03-23T05:31:25;7.95;;;3.40;;
55417;SDS011;41287;47.554;7.844;2023-03-23T05:33:51;9.63;;;3.90;;
55417;SDS011;41287;47.554;7.844;2023-03-23T05:36:17;7.10;;;3.65;;
55417;SDS011;41287;47.554;7.844;2023-03-23T05:38:43;5.38;;;2.85;;
55417;SDS011;41287;47.554;7.844;2023-03-23T05:41:13;5.00;;;3.10;;
55417;SDS011;41287;47.554;7.844;2023-03-23T05:43:39;5.88;;;3.47;;
55417;SDS011;41287;47.554;7.844;2023-03-23T05:46:05;7.75;;;3.58;;
55417;SDS011;41287;47.554;7.844;2023-03-23T05:48:33;4.45;;;2.67;;
55417;SDS011;41287;47.554;7.844;2023-03-23T05:50:59;5.93;;;3.67;;
55417;SDS011;41287;47.554;7.844;2023-03-23T05:53:24;6.45;;;3.10;;
55417;SDS011;41287;47.554;7.844;2023-03-23T05:55:50;4.60;;;2.70;;
55417;SDS011;41287;47.554;7.844;2023-03-23T05:58:16;6.13;;;3.40;;
55417;SDS011;41287;47.554;7.844;2023-03-23T06:00:43;5.70;;;3.20;;
55417;SDS011;41287;47.554;7.844;2023-03-23T06:03:10;6.70;;;3.45;;
55417;SDS011;41287;47.554;7.844;2023-03-23T06:05:35;5.90;;;3.33;;
55417;SDS011;41287;47.554;7.844;2023-03-23T06:08:01;7.03;;;3.13;;
55417;SDS011;41287;47.554;7.844;2023-03-23T06:10:27;6.22;;;3.33;;
55417;SDS011;41287;47.554;7.844;2023-03-23T06:12:53;8.75;;;3.60;;
55417;SDS011;41287;47.554;7.844;2023-03-23T06:15:18;6.35;;;3.42;;
55417;SDS011;41287;47.554;7.844;2023-03-23T06:17:44;7.28;;;3.28;;
55417;SDS011;41287;47.554;7.844;2023-03-23T06:20:09;9.25;;;3.63;;
55417;SDS011;41287;47.554;7.844;2023-03-23T06:22:36;5.75;;;3.13;;
55417;SDS011;41287;47.554;7.844;2023-03-23T06:25:03;6.00;;;3.40;;
55417;SDS011;41287;47.554;7.844;2023-03-23T06:27:32;5.10;;;2.60;;
55417;SDS011;41287;47.554;7.844;2023-03-23T06:29:57;7.40;;;3.22;;
55417;SDS011;41287;47.554;7.844;2023-03-23T06:32:23;5.65;;;2.88;;
55417;SDS011;41287;47.554;7.844;2023-03-23T06:34:50;7.95;;;3.28;;
55417;SDS011;41287;47.554;7.844;2023-03-23T06:37:15;8.02;;;3.53;;
55417;SDS011;41287;47.554;7.844;2023-03-23T06:39:41;7.40;;;3.45;;
55417;SDS011;41287;47.554;7.844;2023-03-23T06:42:10;6.40;;;3.38;;
55417;SDS011;41287;47.554;7.844;2023-03-23T06:44:37;6.47;;;3.38;;
55417;SDS011;41287;47.554;7.844;2023-03-23T06:47:02;6.32;;;3.40;;
55417;SDS011;41287;47.554;7.844;2023-03-23T06:49:28;5.15;;;2.72;;
55417;SDS011;41287;47.554;7.844;2023-03-23T06:51:53;4.57;;;2.53;;
55417;SDS011;41287;47.554;7.844;2023-03-23T06:54:20;5.65;;;2.85;;
55417;SDS011;41287;47.554;7.844;2023-03-23T06:56:46;10.40;;;3.47;;
55417;SDS011;41287;47.554;7.844;2023-03-23T06:59:11;7.00;;;3.05;;
55417;SDS011;41287;47.554;7.844;2023-03-23T07:01:37;7.25;;;3.25;;
55417;SDS011;41287;47.554;7.844;2023-03-23T07:04:03;6.60;;;2.60;;
55417;SDS011;41287;47.554;7.844;2023-03-23T07:06:32;7.53;;;3.67;;
55417;SDS011;41287;47.554;7.844;2023-03-23T07:08:57;8.60;;;3.17;;
55417;SDS011;41287;47.554;7.844;2023-03-23T07:11:23;7.80;;;3.38;;
55417;SDS011;41287;47.554;7.844;2023-03-23T07:13:49;7.47;;;2.90;;
55417;SDS011;41287;47.554;7.844;2023-03-23T07:16:15;7.13;;;3.40;;
55417;SDS011;41287;47.554;7.844;2023-03-23T07:18:42;5.72;;;3.00;;
55417;SDS011;41287;47.554;7.844;2023-03-23T07:21:08;6.00;;;2.80;;
55417;SDS011;41287;47.554;7.844;2023-03-23T07:23:33;7.70;;;3.15;;
55417;SDS011;41287;47.554;7.844;2023-03-23T07:25:59;5.70;;;2.70;;
55417;SDS011;41287;47.554;7.844;2023-03-23T07:28:24;9.82;;;3.20;;
55417;SDS011;41287;47.554;7.844;2023-03-23T07:30:50;6.45;;;3.30;;
55417;SDS011;41287;47.554;7.844;2023-03-23T07:33:16;5.45;;;3.08;;
55417;SDS011;41287;47.554;7.844;2023-03-23T07:35:42;5.03;;;2.67;;
55417;SDS011;41287;47.554;7.844;2023-03-23T07:38:12;4.05;;;2.42;;
55417;SDS011;41287;47.554;7.844;2023-03-23T07:40:38;6.22;;;2.72;;
55417;SDS011;41287;47.554;7.844;2023-03-23T07:43:04;6.65;;;3.10;;
55417;SDS011;41287;47.554;7.844;2023-03-23T07:45:30;5.63;;;3.00;;
55417;SDS011;41287;47.554;7.844;2023-03-23T07:47:56;8.00;;;2.90;;
55417;SDS011;41287;47.554;7.844;2023-03-23T07:50:23;8.02;;;2.97;;
55417;SDS011;41287;47.554;7.844;2023-03-23T07:52:50;6.50;;;2.90;;
55417;SDS011;41287;47.554;7.844;2023-03-23T07:55:17;7.15;;;2.70;;
55417;SDS011;41287;47.554;7.844;2023-03-23T07:57:46;8.27;;;2.75;;
55417;SDS011;41287;47.554;7.844;2023-03-23T08:00:13;5.93;;;2.97;;
55417;SDS011;41287;47.554;7.844;2023-03-23T08:02:45;6.30;;;2.42;;
55417;SDS011;41287;47.554;7.844;2023-03-23T08:05:11;7.15;;;2.55;;
55417;SDS011;41287;47.554;7.844;2023-03-23T08:07:38;5.93;;;2.50;;
55417;SDS011;41287;47.554;7.844;2023-03-23T08:10:05;4.80;;;1.83;;
55417;SDS011;41287;47.554;7.844;2023-03-23T08:12:34;8.95;;;2.15;;
55417;SDS011;41287;47.554;7.844;2023-03-23T08:15:00;6.55;;;2.28;;
55417;SDS011;41287;47.554;7.844;2023-03-23T08:17:26;6.10;;;2.60;;
55417;SDS011;41287;47.554;7.844;2023-03-23T08:19:51;4.13;;;2.00;;
55417;SDS011;41287;47.554;7.844;2023-03-23T08:22:18;4.10;;;2.17;;
55417;SDS011;41287;47.554;7.844;2023-03-23T08:24:44;5.22;;;2.17;;
55417;SDS011;41287;47.554;7.844;2023-03-23T08:27:10;5.07;;;2.15;;
55417;SDS011;41287;47.554;7.844;2023-03-23T08:29:35;5.40;;;2.22;;
55417;SDS011;41287;47.554;7.844;2023-03-23T08:32:00;6.25;;;2.63;;
55417;SDS011;41287;47.554;7.844;2023-03-23T08:34:27;6.60;;;2.33;;
55417;SDS011;41287;47.554;7.844;2023-03-23T08:36:53;4.93;;;2.38;;
55417;SDS011;41287;47.554;7.844;2023-03-23T08:39:20;3.95;;;1.90;;
55417;SDS011;41287;47.554;7.844;2023-03-23T08:41:47;6.43;;;2.22;;
55417;SDS011;41287;47.554;7.844;2023-03-23T08:44:13;6.05;;;2.47;;
55417;SDS011;41287;47.554;7.844;2023-03-23T08:46:43;6.10;;;2.40;;
55417;SDS011;41287;47.554;7.844;2023-03-23T08:49:09;4.28;;;1.95;;
55417;SDS011;41287;47.554;7.844;2023-03-23T08:51:34;4.10;;;2.10;;
55417;SDS011;41287;47.554;7.844;2023-03-23T08:54:00;6.28;;;2.50;;
55417;SDS011;41287;47.554;7.844;2023-03-23T08:56:26;4.78;;;2.40;;
55417;SDS011;41287;47.554;7.844;2023-03-23T08:58:52;5.50;;;2.30;;
55417;SDS011;41287;47.554;7.844;2023-03-23T09:01:18;4.50;;;2.38;;
55417;SDS011;41287;47.554;7.844;2023-03-23T09:03:43;4.93;;;2.20;;
55417;SDS011;41287;47.554;7.844;2023-03-23T09:06:09;5.72;;;2.97;;
55417;SDS011;41287;47.554;7.844;2023-03-23T09:08:37;4.53;;;1.90;;
55417;SDS011;41287;47.554;7.844;2023-03-23T09:11:05;4.40;;;2.00;;
55417;SDS011;41287;47.554;7.844;2023-03-23T09:13:33;6.00;;;2.45;;
55417;SDS011;41287;47.554;7.844;2023-03-23T09:16:00;5.28;;;2.70;;
55417;SDS011;41287;47.554;7.844;2023-03-23T09:18:25;5.93;;;2.60;;
55417;SDS011;41287;47.554;7.844;2023-03-23T09:20:51;4.40;;;2.17;;
55417;SDS011;41287;47.554;7.844;2023-03-23T09:23:21;5.20;;;2.20;;
55417;SDS011;41287;47.554;7.844;2023-03-23T09:25:47;3.60;;;2.13;;
55417;SDS011;41287;47.554;7.844;2023-03-23T09:28:12;5.38;;;2.28;;
55417;SDS011;41287;47.554;7.844;2023-03-23T09:30:38;5.35;;;1.95;;
55417;SDS011;41287;47.554;7.844;2023-03-23T09:33:06;3.88;;;2.10;;
55417;SDS011;41287;47.554;7.844;2023-03-23T09:35:33;3.92;;;2.30;;
55417;SDS011;41287;47.554;7.844;2023-03-23T09:38:00;4.82;;;2.38;;
55417;SDS011;41287;47.554;7.844;2023-03-23T09:40:29;4.97;;;2.40;;
55417;SDS011;41287;47.554;7.844;2023-03-23T09:45:55;3.88;;;1.85;;
55417;SDS011;41287;47.554;7.844;2023-03-23T09:48:37;4.82;;;2.00;;
55417;SDS011;41287;47.554;7.844;2023-03-23T09:53:41;6.55;;;2.33;;
55417;SDS011;41287;47.554;7.844;2023-03-23T09:56:13;5.28;;;2.53;;
55417;SDS011;41287;47.554;7.844;2023-03-23T09:58:43;5.68;;;1.95;;
55417;SDS011;41287;47.554;7.844;2023-03-23T10:01:16;5.05;;;2.45;;
55417;SDS011;41287;47.554;7.844;2023-03-23T10:03:47;3.97;;;2.20;;
55417;SDS011;41287;47.554;7.844;2023-03-23T10:06:14;6.25;;;2.22;;
55417;SDS011;41287;47.554;7.844;2023-03-23T10:08:49;6.85;;;2.60;;
55417;SDS011;41287;47.554;7.844;2023-03-23T10:16:33;4.35;;;2.28;;
55417;SDS011;41287;47.554;7.844;2023-03-23T10:19:25;4.97;;;2.40;;
55417;SDS011;41287;47.554;7.844;2023-03-23T10:21:50;9.27;;;2.30;;
55417;SDS011;41287;47.554;7.844;2023-03-23T10:24:19;8.45;;;2.22;;
55417;SDS011;41287;47.554;7.844;2023-03-23T10:27:02;5.32;;;2.28;;
55417;SDS011;41287;47.554;7.844;2023-03-23T10:29:36;6.22;;;2.47;;
55417;SDS011;41287;47.554;7.844;2023-03-23T10:32:10;4.00;;;2.25;;
55417;SDS011;41287;47.554;7.844;2023-03-23T10:34:58;3.88;;;2.20;;
55417;SDS011;41287;47.554;7.844;2023-03-23T10:37:35;5.20;;;2.30;;
55417;SDS011;41287;47.554;7.844;2023-03-23T10:40:04;6.85;;;2.58;;
55417;SDS011;41287;47.554;7.844;2023-03-23T10:42:36;6.10;;;2.38;;
55417;SDS011;41287;47.554;7.844;2023-03-23T10:47:58;4.63;;;1.88;;
55417;SDS011;41287;47.554;7.844;2023-03-23T10:50:31;7.47;;;2.95;;
55417;SDS011;41287;47.554;7.844;2023-03-23T10:52:59;4.07;;;2.05;;
55417;SDS011;41287;47.554;7.844;2023-03-23T10:55:44;4.88;;;1.98;;
55417;SDS011;41287;47.554;7.844;2023-03-23T10:58:11;5.85;;;1.95;;
55417;SDS011;41287;47.554;7.844;2023-03-23T11:00:42;7.45;;;2.50;;
55417;SDS011;41287;47.554;7.844;2023-03-23T11:05:42;5.35;;;2.42;;
55417;SDS011;41287;47.554;7.844;2023-03-23T11:08:22;4.90;;;2.05;;
55417;SDS011;41287;47.554;7.844;2023-03-23T11:10:51;4.47;;;2.53;;
55417;SDS011;41287;47.554;7.844;2023-03-23T11:13:18;6.00;;;2.25;;
55417;SDS011;41287;47.554;7.844;2023-03-23T11:15:46;6.20;;;2.00;;
55417;SDS011;41287;47.554;7.844;2023-03-23T11:18:20;4.00;;;2.33;;
55417;SDS011;41287;47.554;7.844;2023-03-23T11:20:49;5.63;;;2.00;;
55417;SDS011;41287;47.554;7.844;2023-03-23T11:23:21;5.07;;;2.20;;
55417;SDS011;41287;47.554;7.844;2023-03-23T11:28:43;6.20;;;2.47;;
55417;SDS011;41287;47.554;7.844;2023-03-23T11:31:34;4.55;;;1.90;;
55417;SDS011;41287;47.554;7.844;2023-03-23T11:34:08;4.57;;;2.25;;
55417;SDS011;41287;47.554;7.844;2023-03-23T11:36:37;5.57;;;2.50;;
55417;SDS011;41287;47.554;7.844;2023-03-23T11:39:20;5.57;;;2.17;;
55417;SDS011;41287;47.554;7.844;2023-03-23T11:41:48;4.10;;;2.17;;
55417;SDS011;41287;47.554;7.844;2023-03-23T11:44:14;4.28;;;2.17;;
55417;SDS011;41287;47.554;7.844;2023-03-23T11:46:48;3.25;;;1.85;;
55417;SDS011;41287;47.554;7.844;2023-03-23T11:49:42;5.80;;;2.20;;
55417;SDS011;41287;47.554;7.844;2023-03-23T11:52:24;7.45;;;2.35;;
55417;SDS011;41287;47.554;7.844;2023-03-23T11:55:09;4.60;;;2.10;;
55417;SDS011;41287;47.554;7.844;2023-03-23T11:57:38;5.50;;;2.25;;
55417;SDS011;41287;47.554;7.844;2023-03-23T12:00:15;4.43;;;2.00;;
55417;SDS011;41287;47.554;7.844;2023-03-23T12:02:50;10.85;;;2.45;;
55417;SDS011;41287;47.554;7.844;2023-03-23T12:11:07;9.07;;;2.30;;
55417;SDS011;41287;47.554;7.844;2023-03-23T12:19:53;6.60;;;2.35;;
55417;SDS011;41287;47.554;7.844;2023-03-23T12:25:42;5.57;;;2.67;;
55417;SDS011;41287;47.554;7.844;2023-03-23T12:28:32;9.43;;;2.40;;
55417;SDS011;41287;47.554;7.844;2023-03-23T12:31:09;5.93;;;2.58;;
55417;SDS011;41287;47.554;7.844;2023-03-23T12:34:01;5.80;;;2.65;;
55417;SDS011;41287;47.554;7.844;2023-03-23T12:36:52;5.78;;;2.15;;
55417;SDS011;41287;47.554;7.844;2023-03-23T12:42:39;7.20;;;2.60;;
55417;SDS011;41287;47.554;7.844;2023-03-23T12:47:58;5.45;;;2.15;;
55417;SDS011;41287;47.554;7.844;2023-03-23T12:51:00;5.80;;;2.05;;
55417;SDS011;41287;47.554;7.844;2023-03-23T12:53:27;6.97;;;2.00;;
55417;SDS011;41287;47.554;7.844;2023-03-23T12:58:55;5.32;;;2.30;;
55417;SDS011;41287;47.554;7.844;2023-03-23T13:01:29;6.53;;;2.42;;
55417;SDS011;41287;47.554;7.844;2023-03-23T13:04:06;8.02;;;2.30;;
55417;SDS011;41287;47.554;7.844;2023-03-23T13:06:40;5.75;;;2.13;;
55417;SDS011;41287;47.554;7.844;2023-03-23T13:09:18;6.50;;;2.00;;
55417;SDS011;41287;47.554;7.844;2023-03-23T13:11:54;7.97;;;2.30;;
55417;SDS011;41287;47.554;7.844;2023-03-23T13:14:37;3.90;;;2.00;;
55417;SDS011;41287;47.554;7.844;2023-03-23T13:17:28;5.38;;;2.20;;
55417;SDS011;41287;47.554;7.844;2023-03-23T13:20:21;4.85;;;2.17;;
55417;SDS011;41287;47.554;7.844;2023-03-23T13:28:26;6.28;;;2.22;;
55417;SDS011;41287;47.554;7.844;2023-03-23T13:30:58;6.10;;;2.28;;
55417;SDS011;41287;47.554;7.844;2023-03-23T13:33:25;8.27;;;2.13;;
55417;SDS011;41287;47.554;7.844;2023-03-23T13:35:54;5.25;;;2.05;;
55417;SDS011;41287;47.554;7.844;2023-03-23T13:38:25;5.00;;;1.88;;
55417;SDS011;41287;47.554;7.844;2023-03-23T13:40:53;4.15;;;1.83;;
55417;SDS011;41287;47.554;7.844;2023-03-23T13:43:33;4.22;;;2.20;;
55417;SDS011;41287;47.554;7.844;2023-03-23T13:46:11;6.05;;;2.30;;
55417;SDS011;41287;47.554;7.844;2023-03-23T13:48:49;6.00;;;2.10;;
55417;SDS011;41287;47.554;7.844;2023-03-23T13:54:13;4.68;;;2.00;;
55417;SDS011;41287;47.554;7.844;2023-03-23T13:56:52;3.70;;;1.83;;
55417;SDS011;41287;47.554;7.844;2023-03-23T14:01:51;6.15;;;1.92;;
55417;SDS011;41287;47.554;7.844;2023-03-23T14:04:18;4.78;;;2.13;;
55417;SDS011;41287;47.554;7.844;2023-03-23T14:06:45;4.88;;;1.90;;
55417;SDS011;41287;47.554;7.844;2023-03-23T14:09:16;4.60;;;1.98;;
55417;SDS011;41287;47.554;7.844;2023-03-23T14:11:48;6.05;;;2.35;;
55417;SDS011;41287;47.554;7.844;2023-03-23T14:14:30;6.15;;;2.30;;
55417;SDS011;41287;47.554;7.844;2023-03-23T14:17:18;4.80;;;1.98;;
55417;SDS011;41287;47.554;7.844;2023-03-23T14:19:53;5.45;;;2.30;;
55417;SDS011;41287;47.554;7.844;2023-03-23T14:24:50;3.90;;;1.73;;
55417;SDS011;41287;47.554;7.844;2023-03-23T14:27:20;7.55;;;2.17;;
55417;SDS011;41287;47.554;7.844;2023-03-23T14:29:57;4.47;;;1.75;;
55417;SDS011;41287;47.554;7.844;2023-03-23T14:32:24;4.00;;;1.80;;
55417;SDS011;41287;47.554;7.844;2023-03-23T14:34:53;4.15;;;1.70;;
55417;SDS011;41287;47.554;7.844;2023-03-23T14:37:19;5.70;;;1.77;;
55417;SDS011;41287;47.554;7.844;2023-03-23T14:39:46;5.90;;;2.25;;
55417;SDS011;41287;47.554;7.844;2023-03-23T14:42:14;5.75;;;2.28;;
55417;SDS011;41287;47.554;7.844;2023-03-23T14:44:46;6.70;;;1.80;;
55417;SDS011;41287;47.554;7.844;2023-03-23T14:47:16;3.58;;;1.77;;
55417;SDS011;41287;47.554;7.844;2023-03-23T14:49:45;3.63;;;2.10;;
55417;SDS011;41287;47.554;7.844;2023-03-23T14:52:18;4.88;;;1.90;;
55417;SDS011;41287;47.554;7.844;2023-03-23T14:54:48;4.55;;;2.22;;
55417;SDS011;41287;47.554;7.844;2023-03-23T14:57:34;6.18;;;2.10;;
55417;SDS011;41287;47.554;7.844;2023-03-23T14:59:59;3.10;;;1.80;;
55417;SDS011;41287;47.554;7.844;2023-03-23T15:05:00;7.93;;;1.90;;
55417;SDS011;41287;47.554;7.844;2023-03-23T15:07:29;3.53;;;1.88;;
55417;SDS011;41287;47.554;7.844;2023-03-23T15:09:58;6.80;;;2.15;;
55417;SDS011;41287;47.554;7.844;2023-03-23T15:12:24;4.80;;;2.42;;
55417;SDS011;41287;47.554;7.844;2023-03-23T15:14:54;4.32;;;1.98;;
55417;SDS011;41287;47.554;7.844;2023-03-23T15:17:23;7.00;;;2.42;;
55417;SDS011;41287;47.554;7.844;2023-03-23T15:19:51;5.43;;;2.03;;
55417;SDS011;41287;47.554;7.844;2023-03-23T15:22:23;4.45;;;1.83;;
55417;SDS011;41287;47.554;7.844;2023-03-23T15:27:42;3.47;;;1.95;;
55417;SDS011;41287;47.554;7.844;2023-03-23T15:30:31;9.10;;;2.28;;
55417;SDS011;41287;47.554;7.844;2023-03-23T15:33:11;2.35;;;1.60;;
55417;SDS011;41287;47.554;7.844;2023-03-23T15:35:38;4.43;;;1.80;;
55417;SDS011;41287;47.554;7.844;2023-03-23T15:38:15;4.45;;;1.65;;
55417;SDS011;41287;47.554;7.844;2023-03-23T15:40:48;3.20;;;1.90;;
55417;SDS011;41287;47.554;7.844;2023-03-23T15:45:55;4.95;;;2.03;;
55417;SDS011;41287;47.554;7.844;2023-03-23T15:50:51;4.05;;;1.77;;
55417;SDS011;41287;47.554;7.844;2023-03-23T15:53:27;3.85;;;1.50;;
55417;SDS011;41287;47.554;7.844;2023-03-23T15:56:02;5.43;;;1.63;;
55417;SDS011;41287;47.554;7.844;2023-03-23T15:58:29;5.38;;;1.83;;
55417;SDS011;41287;47.554;7.844;2023-03-23T16:00:55;3.78;;;1.50;;
55417;SDS011;41287;47.554;7.844;2023-03-23T16:03:23;3.65;;;1.88;;
55417;SDS011;41287;47.554;7.844;2023-03-23T16:05:55;4.47;;;1.98;;
55417;SDS011;41287;47.554;7.844;2023-03-23T16:08:23;2.45;;;1.17;;
55417;SDS011;41287;47.554;7.844;2023-03-23T16:10:49;3.38;;;1.60;;
55417;SDS011;41287;47.554;7.844;2023-03-23T16:13:15;6.22;;;2.00;;
55417;SDS011;41287;47.554;7.844;2023-03-23T16:15:40;4.25;;;1.73;;
55417;SDS011;41287;47.554;7.844;2023-03-23T16:18:06;4.50;;;1.60;;
55417;SDS011;41287;47.554;7.844;2023-03-23T16:20:34;4.30;;;1.75;;